Strona główna
METAR-TAF:

METAR-TAF

Lotnisko :

Port lotniczy Warszawa-Modlin

Warszawa-Modlin, Polska

Szerokość geograficzna: 52-27-04N, Długość geograficzna: 020-39-06E, wysokość: 104 m

Aktualna obserwacja pogody

Raport powstał 24 minut temu, godzina 07:00 UTC
Wiatr 9 kt od północno-północny wschód
Temperatura 17°C
Wilgotność 82%
Ciśnienie 1021 hPa
Widzialność 10 km lub więcej
Brak chmur poniżej 1500 m i brak chmur cumulonimbus

METAR: EPMO 230700Z 03009KT CAVOK 17/14 Q1021

czas: 09:24 (07:24 UTC)

Prognoza

Raport powstał 1 godzina i 54 minut temu, godzina 05:30 UTC
Prognoza ważna od 23 godzina 06 UTC do 24 godzina 06 UTC
Wiatr 4 kt z kierunków zmiennych
Widzialność: 2000 m
Rozproszone chmury na wysokości 200 ft
zamglenie
Stopniowe zmiany
od 23 godzina 06 UTC do 23 godzina 08 UTC
Wiatr 10 kt od północ
Widzialność 10 km lub więcej
Brak chmur poniżej 1500 m i brak chmur cumulonimbus

TAF: EPMO 230530Z 2306/2406 VRB04KT 2000 BR SCT002 BECMG 2306/2308 01010KT CAVOK

Obserwacja i prognoza pogody dla ponad 4000 lotnisk (raport METAR i TAF).

Dostępne stacje oznaczono żółtymi i czerwonymi punktami na mapie.

Najedź kursorem aby zobaczyć nazwę stacji.

Kliknij aby zobaczyć obserwacje i prognozy pogody.

Aby zmienić mapę: kliknij na zielony przycisk z czarnym krzyżykiem, aby powiększyć; na zielony przycisk z myślnikiem, aby pomniejszyć; na zielone strzałki, aby przejść do map sąsiednich.


METAR-TAF: